Time;durP1;ratioP1;P1;durP2;ratioP2;P2;SDS_P1;SDS_P2;PMS_P1;PMS_P2;Temp;Humidity;BMP_temperature;BMP_pressure;BME280_temperature;BME280_humidity;BME280_pressure;Samples;Min_cycle;Max_cycle;Signal;HPM_P1;HPM_P2
2023/09/24 00:02:19;;;;;;;2.03;1.80;;;;;;;23.88;66.18;98119.09;5038053;28;20303;-24
2023/09/24 00:04:46;;;;;;;2.07;1.90;;;;;;;23.88;66.03;98124.22;5037843;28;20198;-24
2023/09/24 00:07:14;;;;;;;2.30;1.93;;;;;;;23.88;66.10;98122.53;5033530;28;20221;-24
2023/09/24 00:09:41;;;;;;;2.60;1.80;;;;;;;23.89;65.75;98125.97;5034901;28;20198;-23
2023/09/24 00:12:07;;;;;;;1.90;1.80;;;;;;;23.89;65.78;98129.41;5031768;28;20222;-24
2023/09/24 00:14:34;;;;;;;2.10;1.90;;;;;;;23.90;66.00;98127.72;5039250;28;20343;-24
2023/09/24 00:17:00;;;;;;;2.00;1.90;;;;;;;23.89;66.10;98129.41;5042881;28;20201;-23
2023/09/24 00:19:27;;;;;;;2.10;1.90;;;;;;;23.89;65.79;98134.53;5034796;28;20218;-23
2023/09/24 00:21:54;;;;;;;2.40;2.20;;;;;;;23.89;65.71;98126.84;5031233;28;20225;-24
2023/09/24 00:24:20;;;;;;;1.97;1.77;;;;;;;23.88;65.48;98127.66;5045899;28;20197;-23
2023/09/24 00:26:47;;;;;;;2.03;1.77;;;;;;;23.87;65.78;98123.38;5046086;28;20201;-24
2023/09/24 00:29:14;;;;;;;1.97;1.87;;;;;;;23.87;65.94;98127.63;5039645;28;20280;-23
2023/09/24 00:31:40;;;;;;;1.80;1.70;;;;;;;23.87;65.82;98128.50;5046283;28;20251;-24
2023/09/24 00:34:08;;;;;;;2.87;1.90;;;;;;;23.87;65.54;98128.50;5030726;28;20626;-23
2023/09/24 00:36:35;;;;;;;2.00;1.87;;;;;;;23.88;65.69;98127.66;5039026;28;20260;-24
2023/09/24 00:39:02;;;;;;;1.90;1.77;;;;;;;23.89;65.54;98128.56;5045120;28;20640;-23
2023/09/24 00:41:28;;;;;;;2.03;1.70;;;;;;;23.89;65.29;98131.97;5046272;28;20221;-22
2023/09/24 00:43:57;;;;;;;1.97;1.87;;;;;;;23.89;65.39;98134.53;5045680;28;20284;-24
2023/09/24 00:46:24;;;;;;;1.90;1.80;;;;;;;23.89;65.44;98134.53;5042667;28;20208;-23
2023/09/24 00:48:50;;;;;;;1.87;1.73;;;;;;;23.87;65.58;98125.94;5029540;28;20232;-24
2023/09/24 00:51:19;;;;;;;2.00;1.90;;;;;;;23.89;65.45;98128.56;5022522;28;20267;-23
2023/09/24 00:53:46;;;;;;;2.00;1.70;;;;;;;23.88;65.45;98132.81;5044046;28;20201;-24
2023/09/24 00:56:14;;;;;;;2.17;1.97;;;;;;;23.87;65.59;98125.06;5042469;28;20706;-24
2023/09/24 00:58:42;;;;;;;3.03;2.20;;;;;;;23.81;65.29;98124.88;5045603;28;20286;-24
2023/09/24 01:01:09;;;;;;;2.10;1.90;;;;;;;23.87;65.61;98138.78;5021380;28;20303;-24
2023/09/24 01:03:40;;;;;;;2.43;2.00;;;;;;;23.86;65.17;98144.72;5033312;28;20212;-24
2023/09/24 01:06:07;;;;;;;1.80;1.70;;;;;;;23.87;65.08;98140.47;5038961;28;20206;-24
2023/09/24 01:08:34;;;;;;;2.13;1.90;;;;;;;23.87;65.05;98146.47;5035801;28;20201;-24
2023/09/24 01:11:02;;;;;;;1.83;1.73;;;;;;;23.87;65.16;98149.03;5017856;28;20233;-24
2023/09/24 01:13:42;;;;;;;2.30;2.10;;;;;;;23.87;65.15;98154.19;5038555;28;20236;-24
2023/09/24 01:16:09;;;;;;;2.93;2.03;;;;;;;23.89;65.08;98159.38;5030824;28;20197;-23
2023/09/24 01:18:37;;;;;;;2.10;1.90;;;;;;;23.89;65.24;98164.50;5052278;28;20224;-22
2023/09/24 01:21:10;;;;;;;1.80;1.67;;;;;;;23.88;65.27;98166.19;5033782;28;20295;-22
2023/09/24 01:23:38;;;;;;;2.20;2.00;;;;;;;23.87;64.81;98167.03;5016639;28;20680;-23
2023/09/24 01:26:05;;;;;;;2.43;1.93;;;;;;;23.87;65.06;98163.56;5033659;28;20206;-24
2023/09/24 01:28:31;;;;;;;2.43;2.00;;;;;;;23.86;65.22;98161.84;5039026;28;20593;-23
2023/09/24 01:30:58;;;;;;;1.70;1.60;;;;;;;23.85;65.27;98168.66;5049469;28;20226;-24
2023/09/24 01:33:25;;;;;;;2.40;1.93;;;;;;;23.85;65.35;98166.09;5038288;28;20289;-25
2023/09/24 01:35:52;;;;;;;2.03;1.83;;;;;;;23.85;64.73;98165.22;5041122;28;20299;-23
2023/09/24 01:38:19;;;;;;;2.40;1.90;;;;;;;23.85;64.88;98176.34;5047080;28;20307;-24
2023/09/24 01:40:46;;;;;;;2.37;1.90;;;;;;;23.85;64.97;98173.78;5042403;28;20715;-23
2023/09/24 01:43:14;;;;;;;1.93;1.83;;;;;;;23.85;64.97;98168.66;5039832;28;20193;-23
2023/09/24 01:45:41;;;;;;;2.00;1.67;;;;;;;23.85;64.97;98168.66;5043275;28;20703;-24
2023/09/24 01:48:07;;;;;;;1.93;1.77;;;;;;;23.86;64.58;98172.09;5040420;28;20584;-24
2023/09/24 01:50:37;;;;;;;1.70;1.60;;;;;;;23.86;64.92;98178.09;5035606;28;20209;-23
2023/09/24 01:53:04;;;;;;;3.17;1.70;;;;;;;23.86;64.55;98183.22;5044620;28;20200;-23
2023/09/24 01:55:31;;;;;;;1.90;1.80;;;;;;;23.85;64.74;98193.44;5049240;28;20232;-23
2023/09/24 01:58:01;;;;;;;1.63;1.50;;;;;;;23.84;64.43;98189.16;5046571;28;20211;-23
2023/09/24 02:00:28;;;;;;;3.00;1.80;;;;;;;23.84;64.70;98189.16;5044178;28;20215;-24
2023/09/24 02:02:57;;;;;;;1.80;1.70;;;;;;;23.84;64.50;98196.84;5038127;28;20193;-24
2023/09/24 02:05:24;;;;;;;2.20;2.00;;;;;;;23.83;64.62;98198.53;5032090;28;20212;-24
2023/09/24 02:07:51;;;;;;;2.10;1.90;;;;;;;23.84;64.41;98200.28;5039396;28;20205;-24
2023/09/24 02:10:17;;;;;;;1.77;1.67;;;;;;;23.84;64.22;98200.28;5043953;28;20327;-23
2023/09/24 02:12:45;;;;;;;2.30;1.73;;;;;;;23.85;64.41;98219.13;5043415;28;20704;-24
2023/09/24 02:15:12;;;;;;;2.17;1.87;;;;;;;23.85;64.36;98212.31;5045846;28;20255;-23
2023/09/24 02:17:41;;;;;;;3.20;1.90;;;;;;;23.86;64.43;98221.72;5039740;28;20248;-23
2023/09/24 02:20:32;;;;;;;2.13;1.80;;;;;;;23.86;64.36;98226.88;5026931;28;20228;-23
2023/09/24 02:23:00;;;;;;;1.80;1.70;;;;;;;23.86;64.49;98224.28;5027728;28;20664;-24
2023/09/24 02:25:31;;;;;;;1.87;1.60;;;;;;;23.86;64.05;98226.00;5031871;28;20281;-23
2023/09/24 02:27:57;;;;;;;1.90;1.73;;;;;;;23.84;63.89;98231.09;5034475;28;20283;-24
2023/09/24 02:30:28;;;;;;;2.00;1.80;;;;;;;23.85;64.01;98237.97;5031723;28;20627;-23
2023/09/24 02:32:58;;;;;;;1.60;1.50;;;;;;;23.85;63.99;98242.22;5037275;28;20205;-23
2023/09/24 02:35:25;;;;;;;1.93;1.70;;;;;;;23.84;63.79;98253.31;5031664;28;20202;-24
2023/09/24 02:37:52;;;;;;;1.90;1.80;;;;;;;23.84;63.89;98255.91;5041543;28;20204;-23
2023/09/24 02:40:23;;;;;;;1.90;1.70;;;;;;;23.85;63.62;98255.94;5028921;28;20229;-24
2023/09/24 02:42:52;;;;;;;1.83;1.70;;;;;;;23.84;63.84;98264.47;5037221;28;20234;-22
2023/09/24 02:45:19;;;;;;;2.00;1.80;;;;;;;23.85;63.59;98261.06;5031898;28;20197;-24
2023/09/24 02:47:47;;;;;;;2.00;1.73;;;;;;;23.85;63.97;98258.50;5036022;28;20285;-23
2023/09/24 02:50:14;;;;;;;1.97;1.70;;;;;;;23.85;63.69;98253.38;5039085;28;20255;-23
2023/09/24 02:52:45;;;;;;;2.47;1.80;;;;;;;23.85;63.83;98261.06;5040211;28;20224;-24
2023/09/24 02:55:14;;;;;;;1.90;1.80;;;;;;;23.85;63.65;98260.19;5051501;28;20255;-23
2023/09/24 02:57:42;;;;;;;1.90;1.80;;;;;;;23.84;63.52;98261.91;5043319;28;20250;-24
2023/09/24 03:00:19;;;;;;;2.00;1.80;;;;;;;23.83;63.70;98265.28;5036647;28;20726;-24
2023/09/24 03:02:46;;;;;;;1.57;1.47;;;;;;;23.83;63.59;98265.28;5043153;28;20212;-23
2023/09/24 03:05:19;;;;;;;1.73;1.63;;;;;;;23.83;63.47;98267.00;5039549;28;20196;-24
2023/09/24 03:07:46;;;;;;;1.63;1.53;;;;;;;23.82;63.44;98266.13;5038367;28;20285;-23
2023/09/24 03:10:13;;;;;;;1.70;1.60;;;;;;;23.82;63.16;98272.94;5030921;28;20719;-23
2023/09/24 03:12:40;;;;;;;1.83;1.73;;;;;;;23.83;63.22;98279.84;5035664;28;20305;-23
2023/09/24 03:15:10;;;;;;;1.60;1.50;;;;;;;23.83;63.33;98275.53;5033843;28;20201;-23
2023/09/24 03:17:37;;;;;;;2.03;1.60;;;;;;;23.83;63.16;98277.25;5035303;28;20212;-24
2023/09/24 03:20:14;;;;;;;1.80;1.70;;;;;;;23.84;63.17;98279.00;5038156;28;20235;-24
2023/09/24 03:22:42;;;;;;;2.00;1.80;;;;;;;23.84;63.45;98279.00;5025734;28;20274;-23
2023/09/24 03:25:10;;;;;;;1.87;1.77;;;;;;;23.83;63.18;98278.13;5041803;28;20675;-23
2023/09/24 03:27:39;;;;;;;1.40;1.30;;;;;;;23.84;63.44;98286.69;5042751;28;20200;-25
2023/09/24 03:30:08;;;;;;;1.90;1.50;;;;;;;23.82;63.33;98290.91;5035797;28;20197;-23
2023/09/24 03:32:37;;;;;;;1.70;1.60;;;;;;;23.83;62.90;98292.66;5038958;28;20233;-24
2023/09/24 03:35:06;;;;;;;2.60;1.80;;;;;;;23.81;62.94;98300.31;5042423;28;20628;-24
2023/09/24 03:37:32;;;;;;;3.53;1.60;;;;;;;23.81;62.97;98300.31;5037374;28;20204;-24
2023/09/24 03:39:59;;;;;;;2.00;1.80;;;;;;;23.82;63.01;98304.63;5049524;28;20274;-23
2023/09/24 03:42:26;;;;;;;1.80;1.70;;;;;;;23.82;62.90;98306.31;5031803;28;20218;-23
2023/09/24 03:44:52;;;;;;;1.60;1.50;;;;;;;23.82;63.12;98308.88;5036870;28;20240;-24
2023/09/24 03:47:20;;;;;;;1.60;1.50;;;;;;;23.82;62.96;98306.31;5031150;28;20571;-23
2023/09/24 03:49:46;;;;;;;2.73;1.67;;;;;;;23.82;62.95;98304.63;5035867;28;20250;-24
2023/09/24 03:52:13;;;;;;;2.07;1.77;;;;;;;23.83;62.68;98303.78;5030721;28;20225;-23
2023/09/24 03:54:40;;;;;;;1.53;1.43;;;;;;;23.82;62.95;98307.19;5044503;28;20236;-23
2023/09/24 03:57:06;;;;;;;1.70;1.60;;;;;;;23.82;62.99;98307.19;5037829;28;20237;-23
2023/09/24 03:59:36;;;;;;;1.50;1.40;;;;;;;23.82;62.44;98309.75;5050544;28;20213;-24
2023/09/24 04:02:07;;;;;;;2.20;1.90;;;;;;;23.81;62.35;98318.28;5028449;28;20265;-24
2023/09/24 04:04:35;;;;;;;1.50;1.40;;;;;;;23.81;62.38;98318.28;5019551;28;20208;-24
2023/09/24 04:07:02;;;;;;;1.87;1.70;;;;;;;23.80;62.58;98321.66;5038858;28;20213;-23
2023/09/24 04:09:33;;;;;;;1.60;1.50;;;;;;;23.76;62.36;98303.53;5031322;28;20531;-24
2023/09/24 04:12:00;;;;;;;1.57;1.47;;;;;;;23.80;62.40;98324.22;5033779;28;20249;-22
2023/09/24 04:14:27;;;;;;;1.60;1.50;;;;;;;23.81;62.42;98319.97;5039926;28;20247;-23
2023/09/24 04:16:55;;;;;;;1.60;1.50;;;;;;;23.81;62.34;98323.41;5024639;28;20205;-23
2023/09/24 04:19:24;;;;;;;1.50;1.40;;;;;;;23.82;62.60;98326.84;5035181;28;20214;-24
2023/09/24 04:21:52;;;;;;;1.73;1.60;;;;;;;23.82;62.39;98320.03;5043807;23;20326;-23
2023/09/24 04:24:19;;;;;;;2.17;1.57;;;;;;;23.81;62.22;98318.28;5016810;28;20197;-23
2023/09/24 04:26:46;;;;;;;2.03;1.70;;;;;;;23.81;62.49;98323.41;5031745;28;20212;-23
2023/09/24 04:29:15;;;;;;;1.70;1.60;;;;;;;23.81;62.68;98328.56;5033381;28;20343;-25
2023/09/24 04:31:42;;;;;;;1.70;1.60;;;;;;;23.80;62.92;98321.66;5041142;28;20229;-22
2023/09/24 04:34:12;;;;;;;1.60;1.50;;;;;;;23.80;62.69;98323.38;5053187;28;20343;-23
2023/09/24 04:36:40;;;;;;;1.70;1.60;;;;;;;23.81;62.58;98322.53;5049644;28;20663;-24
2023/09/24 04:39:10;;;;;;;1.60;1.50;;;;;;;23.80;62.20;98326.78;5059494;28;20292;-23
2023/09/24 04:41:42;;;;;;;1.83;1.50;;;;;;;23.80;61.93;98315.66;5047471;28;20225;-23
2023/09/24 04:44:09;;;;;;;1.77;1.67;;;;;;;23.81;61.92;98325.09;5040066;28;20204;-23
2023/09/24 04:46:36;;;;;;;1.70;1.60;;;;;;;23.81;62.32;98322.53;5059540;28;20287;-23
2023/09/24 04:49:05;;;;;;;1.60;1.50;;;;;;;23.81;63.02;98323.41;5057776;28;20232;-23
2023/09/24 04:51:34;;;;;;;1.57;1.47;;;;;;;23.82;62.84;98324.28;5053246;28;20267;-22
2023/09/24 04:54:01;;;;;;;1.90;1.67;;;;;;;23.82;63.40;98332.84;5052929;28;20205;-23
2023/09/24 04:56:28;;;;;;;1.67;1.57;;;;;;;23.81;63.38;98338.81;5052531;28;20655;-22
2023/09/24 04:58:55;;;;;;;2.73;1.50;;;;;;;23.80;63.51;98336.22;5048971;28;20213;-23
2023/09/24 05:01:22;;;;;;;2.80;1.70;;;;;;;23.80;63.46;98344.75;5048513;28;20225;-23
2023/09/24 05:03:52;;;;;;;1.97;1.60;;;;;;;23.80;63.27;98351.59;5044820;28;20207;-32
2023/09/24 05:06:19;;;;;;;1.80;1.60;;;;;;;23.79;63.39;98347.28;5045231;28;20218;-30
2023/09/24 05:08:46;;;;;;;2.07;1.60;;;;;;;23.80;62.91;98351.59;5039556;28;20213;-22
2023/09/24 05:11:13;;;;;;;1.40;1.30;;;;;;;23.79;63.35;98352.41;5041644;28;20225;-23
2023/09/24 05:13:43;;;;;;;1.87;1.57;;;;;;;23.80;63.48;98354.19;5040958;28;20205;-25
2023/09/24 05:16:10;;;;;;;1.77;1.50;;;;;;;23.77;63.59;98348.94;5034357;28;20253;-22
2023/09/24 05:18:37;;;;;;;2.00;1.67;;;;;;;23.79;63.93;98366.13;5044235;28;20718;-24
2023/09/24 05:21:13;;;;;;;2.50;1.50;;;;;;;23.80;63.82;98364.44;5035194;28;20229;-24
2023/09/24 05:23:39;;;;;;;3.00;1.90;;;;;;;23.80;63.91;98369.56;5042477;28;20200;-24
2023/09/24 05:26:11;;;;;;;1.80;1.40;;;;;;;23.80;63.48;98361.88;5044430;28;20198;-24
2023/09/24 05:28:37;;;;;;;2.23;1.70;;;;;;;23.78;63.28;98366.97;5039194;28;20210;-23
2023/09/24 05:31:04;;;;;;;2.10;1.70;;;;;;;23.77;62.88;98372.91;5051200;28;20252;-23
2023/09/24 05:33:31;;;;;;;1.60;1.50;;;;;;;23.72;62.14;98356.50;5053877;28;20238;-23
2023/09/24 05:35:58;;;;;;;1.83;1.73;;;;;;;23.78;61.49;98376.34;5056183;28;20200;-23
2023/09/24 05:38:26;;;;;;;2.63;1.70;;;;;;;23.77;60.73;98374.59;5048777;28;20213;-23
2023/09/24 05:40:53;;;;;;;3.23;2.00;;;;;;;23.78;60.39;98373.78;5041752;28;20276;-22
2023/09/24 05:43:20;;;;;;;3.40;1.87;;;;;;;23.77;59.49;98370.31;5043612;28;20696;-22
2023/09/24 05:45:48;;;;;;;1.90;1.80;;;;;;;23.77;58.55;98378.03;5050141;28;20212;-23
2023/09/24 05:48:17;;;;;;;3.87;2.10;;;;;;;23.77;58.72;98380.59;5057018;28;20673;-24
2023/09/24 05:50:44;;;;;;;3.83;2.20;;;;;;;23.78;58.91;98389.19;5052726;28;20326;-23
2023/09/24 05:53:11;;;;;;;4.80;1.70;;;;;;;23.78;59.62;98389.19;5042574;28;20537;-22
2023/09/24 05:55:37;;;;;;;3.23;2.10;;;;;;;23.77;59.96;98385.72;5045460;28;20678;-25
2023/09/24 05:58:05;;;;;;;16.83;2.20;;;;;;;23.76;60.02;98399.41;5044306;28;20225;-22
2023/09/24 06:00:34;;;;;;;13.53;2.30;;;;;;;23.69;55.97;98386.31;5031491;28;20622;-29
2023/09/24 06:03:01;;;;;;;3.73;2.17;;;;;;;23.72;53.74;98400.13;5055607;28;20357;-24
2023/09/24 06:05:28;;;;;;;5.23;2.77;;;;;;;23.70;52.49;98406.88;5017316;28;20579;-23
2023/09/24 06:07:55;;;;;;;4.67;2.53;;;;;;;23.68;51.79;98408.50;5037126;28;20208;-23
2023/09/24 06:10:22;;;;;;;4.20;2.50;;;;;;;23.66;50.48;98409.28;5059776;28;20254;-24
2023/09/24 06:12:49;;;;;;;2.53;2.33;;;;;;;23.63;49.94;98415.19;5060548;28;20255;-22
2023/09/24 06:15:17;;;;;;;3.40;2.73;;;;;;;23.62;49.98;98426.25;5059393;28;20258;-22
2023/09/24 06:17:44;;;;;;;4.93;2.80;;;;;;;23.60;49.58;98420.22;5039399;28;20228;-23
2023/09/24 06:20:12;;;;;;;2.63;2.43;;;;;;;23.58;49.28;98427.00;5033370;28;20328;-23
2023/09/24 06:22:40;;;;;;;2.40;2.20;;;;;;;23.56;49.55;98431.19;5060479;28;20297;-36
2023/09/24 06:25:07;;;;;;;2.40;2.20;;;;;;;23.56;49.54;98435.47;5053560;28;20683;-22
2023/09/24 06:27:34;;;;;;;2.90;2.60;;;;;;;23.54;48.89;98437.09;5031985;28;20209;-23
2023/09/24 06:30:04;;;;;;;2.57;2.37;;;;;;;23.52;48.67;98438.72;5043863;28;20254;-25
2023/09/24 06:32:31;;;;;;;3.07;2.47;;;;;;;23.50;49.09;98433.53;5050464;28;20318;-22
2023/09/24 06:34:58;;;;;;;2.87;2.53;;;;;;;23.49;48.65;98439.50;5049855;28;20627;-22
2023/09/24 06:37:25;;;;;;;5.33;2.90;;;;;;;23.48;48.55;98436.88;5053319;28;20762;-23
2023/09/24 06:39:51;;;;;;;4.30;2.57;;;;;;;23.46;48.70;98436.81;5051960;28;20224;-24
2023/09/24 06:42:18;;;;;;;2.83;2.53;;;;;;;23.46;49.33;98431.69;5030891;28;20639;-23
2023/09/24 06:44:45;;;;;;;5.77;2.70;;;;;;;23.46;49.58;98438.50;5040322;28;20223;-23
2023/09/24 06:47:11;;;;;;;3.37;2.80;;;;;;;23.45;49.90;98440.22;5048421;28;20201;-23
2023/09/24 06:49:38;;;;;;;4.53;2.50;;;;;;;23.47;50.44;98445.41;5055173;28;20232;-22
2023/09/24 06:52:05;;;;;;;7.07;3.03;;;;;;;23.46;50.68;98452.22;5049306;28;20331;-23
2023/09/24 06:54:34;;;;;;;3.87;3.13;;;;;;;23.42;49.69;98447.78;5048189;28;20319;-22
2023/09/24 06:57:01;;;;;;;3.47;2.60;;;;;;;23.41;49.40;98450.31;5038482;28;20216;-24
2023/09/24 06:59:27;;;;;;;4.50;3.10;;;;;;;23.40;50.53;98452.00;5049934;28;20293;-23
2023/09/24 07:01:54;;;;;;;5.50;2.87;;;;;;;23.40;51.17;98454.56;5046366;28;20271;-23
2023/09/24 07:04:21;;;;;;;8.47;3.00;;;;;;;23.39;51.20;98455.38;5036378;28;20765;-23
2023/09/24 07:06:53;;;;;;;5.33;2.70;;;;;;;23.39;51.58;98453.66;5038650;28;20291;-24
2023/09/24 07:09:19;;;;;;;7.80;2.73;;;;;;;23.40;51.96;98452.00;5039451;28;20663;-23
2023/09/24 07:11:46;;;;;;;4.33;2.30;;;;;;;23.41;52.37;98460.56;5040034;28;20650;-24
2023/09/24 07:14:12;;;;;;;5.80;2.33;;;;;;;23.42;52.92;98460.63;5039182;28;20207;-23
2023/09/24 07:16:39;;;;;;;5.23;2.30;;;;;;;23.43;53.30;98470.06;5019457;28;20278;-23
2023/09/24 07:19:06;;;;;;;3.10;2.43;;;;;;;23.43;53.70;98467.50;5038777;28;20354;-23
2023/09/24 07:21:33;;;;;;;2.37;2.17;;;;;;;23.45;53.81;98471.00;5041748;28;20224;-23
2023/09/24 07:24:03;;;;;;;2.77;2.27;;;;;;;23.46;54.07;98469.28;5040729;28;20213;-22
2023/09/24 07:26:31;;;;;;;4.27;2.40;;;;;;;23.45;54.37;98473.56;5034886;28;20300;-27
2023/09/24 07:28:57;;;;;;;2.50;2.23;;;;;;;23.46;54.58;98483.00;5037115;28;20205;-22
2023/09/24 07:31:25;;;;;;;2.73;2.43;;;;;;;23.45;54.92;98483.84;5036742;28;20592;-24
2023/09/24 07:33:57;;;;;;;5.00;2.57;;;;;;;23.47;55.12;98481.31;5035293;28;20213;-22
2023/09/24 07:36:24;;;;;;;3.53;2.20;;;;;;;23.47;55.42;98473.63;5036570;28;20582;-22
2023/09/24 07:38:53;;;;;;;3.17;2.30;;;;;;;23.48;55.66;98475.34;5037810;28;20288;-23
2023/09/24 07:41:21;;;;;;;4.97;2.27;;;;;;;23.49;55.74;98480.53;5019962;28;20226;-22
2023/09/24 07:43:48;;;;;;;3.47;2.20;;;;;;;23.50;56.00;98478.88;5039678;28;20234;-22
2023/09/24 07:46:15;;;;;;;6.67;2.40;;;;;;;23.51;56.23;98473.78;5036923;28;20309;-22
2023/09/24 07:48:42;;;;;;;4.67;2.40;;;;;;;23.52;56.25;98466.94;5043561;28;20209;-23
2023/09/24 07:51:10;;;;;;;5.37;2.40;;;;;;;23.53;56.45;98479.81;5040732;28;20212;-23
2023/09/24 07:53:36;;;;;;;2.53;2.07;;;;;;;23.53;56.67;98479.81;5041646;28;20615;-23
2023/09/24 07:56:07;;;;;;;2.47;2.10;;;;;;;23.48;56.84;98483.94;5040863;28;20322;-22
2023/09/24 07:58:37;;;;;;;2.67;2.27;;;;;;;23.54;56.79;98485.84;5043734;28;20206;-22
2023/09/24 08:01:08;;;;;;;2.53;2.20;;;;;;;23.38;56.88;98461.31;5042236;28;20225;-23
2023/09/24 08:03:35;;;;;;;3.50;2.20;;;;;;;23.55;57.20;98493.59;5026010;28;20266;-23
2023/09/24 08:06:02;;;;;;;2.30;2.10;;;;;;;23.54;57.20;98493.53;5041055;28;20209;-22
2023/09/24 08:08:29;;;;;;;2.40;1.87;;;;;;;23.36;57.48;98460.41;5041152;28;20209;-23
2023/09/24 08:11:15;;;;;;;2.30;2.10;;;;;;;23.56;57.76;98499.63;5029398;28;20267;-23
2023/09/24 08:13:42;;;;;;;2.57;2.10;;;;;;;23.57;58.03;98493.66;5041229;28;20256;-32
2023/09/24 08:16:09;;;;;;;2.13;2.00;;;;;;;23.57;58.13;98488.53;5042283;28;20291;-22
2023/09/24 08:18:35;;;;;;;2.63;2.27;;;;;;;23.56;58.12;98489.34;5038610;28;20209;-22
2023/09/24 08:21:02;;;;;;;3.17;2.10;;;;;;;23.58;58.09;98487.69;5042080;28;20228;-25
2023/09/24 08:23:29;;;;;;;2.17;1.97;;;;;;;23.58;58.34;98490.25;5041666;28;20735;-23
2023/09/24 08:25:55;;;;;;;3.13;2.13;;;;;;;23.57;58.19;98488.53;5041300;28;20213;-22
2023/09/24 08:28:22;;;;;;;1.80;1.70;;;;;;;23.57;58.15;98488.53;5039552;28;20296;-23
2023/09/24 08:30:48;;;;;;;2.33;2.00;;;;;;;23.55;58.25;98483.34;5021771;28;20209;-22
2023/09/24 08:33:15;;;;;;;2.20;2.00;;;;;;;23.57;58.59;98494.53;5037878;28;20893;-22
2023/09/24 08:35:42;;;;;;;1.83;1.73;;;;;;;23.58;58.62;98500.53;5037100;28;20204;-22
2023/09/24 08:38:09;;;;;;;2.17;1.97;;;;;;;23.58;59.00;98498.84;5042729;28;20578;-24
2023/09/24 08:40:36;;;;;;;2.57;2.17;;;;;;;23.59;59.16;98502.28;5042335;28;20248;-23
2023/09/24 08:43:05;;;;;;;2.33;1.90;;;;;;;23.59;59.12;98502.28;5037567;28;20225;-23
2023/09/24 08:45:34;;;;;;;3.00;2.13;;;;;;;23.60;59.29;98502.34;5024442;28;20220;-23
2023/09/24 08:48:07;;;;;;;2.20;2.00;;;;;;;23.60;59.07;98498.91;5025071;28;20626;-23
2023/09/24 08:50:38;;;;;;;2.20;2.00;;;;;;;23.60;59.14;98504.03;5024905;28;20223;-22
2023/09/24 08:53:10;;;;;;;2.33;2.13;;;;;;;23.60;59.26;98499.78;5023090;28;20228;-23
2023/09/24 08:55:41;;;;;;;1.80;1.70;;;;;;;23.60;59.44;98493.78;5038949;28;20291;-25
2023/09/24 08:58:07;;;;;;;2.20;2.00;;;;;;;23.59;59.36;98500.59;5040919;28;20201;-23
2023/09/24 09:00:34;;;;;;;2.20;1.83;;;;;;;23.59;59.22;98499.72;5041436;28;20356;-22
2023/09/24 09:03:01;;;;;;;2.30;2.00;;;;;;;23.59;59.33;98503.16;5040266;28;20221;-23
2023/09/24 09:05:28;;;;;;;3.20;2.03;;;;;;;23.60;59.56;98504.03;5041071;28;20200;-24
2023/09/24 09:07:56;;;;;;;2.37;1.87;;;;;;;23.60;59.51;98494.66;5040299;28;20669;-24
2023/09/24 09:10:25;;;;;;;4.40;1.83;;;;;;;23.61;59.69;98500.63;5038409;28;20295;-22
2023/09/24 09:13:01;;;;;;;2.40;1.90;;;;;;;23.61;59.63;98493.81;5037825;28;20245;-22
2023/09/24 09:15:27;;;;;;;2.53;2.10;;;;;;;23.62;59.83;98499.84;5020694;28;20210;-22
2023/09/24 09:17:54;;;;;;;1.97;1.77;;;;;;;23.62;59.82;98492.16;5040013;28;20302;-22
2023/09/24 09:20:40;;;;;;;2.53;2.00;;;;;;;23.62;59.94;98492.16;5040817;28;20343;-22
2023/09/24 09:23:15;;;;;;;1.80;1.70;;;;;;;23.61;59.81;98491.25;5042152;28;20319;-23
2023/09/24 09:26:00;;;;;;;2.47;1.70;;;;;;;23.61;59.85;98490.38;5022914;28;20207;-22
2023/09/24 09:28:28;;;;;;;2.27;1.90;;;;;;;23.61;59.65;98491.25;5036584;28;20308;-23
2023/09/24 09:31:08;;;;;;;2.13;1.93;;;;;;;23.60;60.15;98481.81;5038545;28;20310;-22
2023/09/24 09:33:42;;;;;;;1.90;1.60;;;;;;;23.62;60.32;98489.56;5038928;28;20371;-32
2023/09/24 09:36:25;;;;;;;3.03;2.03;;;;;;;23.61;60.07;98485.25;5041231;28;20205;-22
2023/09/24 09:38:52;;;;;;;3.00;1.80;;;;;;;23.62;60.13;98484.44;5041467;28;20201;-23
2023/09/24 09:41:19;;;;;;;2.53;2.00;;;;;;;23.63;60.23;98491.31;5038923;28;20231;-24
2023/09/24 09:43:47;;;;;;;1.97;1.77;;;;;;;23.63;60.47;98487.06;5040944;28;20749;-24
2023/09/24 09:46:17;;;;;;;2.93;1.90;;;;;;;23.63;60.55;98475.91;5038239;28;20212;-22
2023/09/24 09:48:54;;;;;;;3.27;1.73;;;;;;;23.62;60.81;98482.72;5039839;28;20204;-24
2023/09/24 09:51:22;;;;;;;2.70;2.10;;;;;;;23.64;60.83;98472.53;5040953;28;20307;-23
2023/09/24 09:53:49;;;;;;;3.10;2.07;;;;;;;23.62;60.48;98475.03;5022600;28;20580;-25
2023/09/24 09:56:16;;;;;;;2.10;1.90;;;;;;;23.63;60.31;98474.22;5041740;28;20213;-23
2023/09/24 09:58:46;;;;;;;1.83;1.70;;;;;;;23.64;60.64;98472.53;5023247;28;20212;-22
2023/09/24 10:01:15;;;;;;;1.87;1.60;;;;;;;23.64;60.45;98469.94;5048895;28;20277;-23
2023/09/24 10:03:42;;;;;;;1.80;1.70;;;;;;;23.64;60.74;98470.84;5042443;28;20289;-23
2023/09/24 10:06:09;;;;;;;1.90;1.80;;;;;;;23.49;60.58;98436.94;5029293;28;20220;-23
2023/09/24 10:08:43;;;;;;;2.07;1.80;;;;;;;23.65;60.61;98469.16;5006386;28;20209;-23
2023/09/24 10:11:11;;;;;;;4.70;1.80;;;;;;;23.65;60.76;98464.88;5047682;28;20667;-22
2023/09/24 10:13:43;;;;;;;3.20;1.80;;;;;;;23.65;60.57;98471.72;5049209;28;20209;-23
2023/09/24 10:16:25;;;;;;;2.23;1.83;;;;;;;23.66;60.51;98468.31;5041307;28;20262;-24
2023/09/24 10:18:58;;;;;;;2.20;1.70;;;;;;;23.65;60.43;98464.88;5051366;28;20209;-27
2023/09/24 10:21:38;;;;;;;1.90;1.80;;;;;;;23.65;60.44;98462.31;5047447;28;20221;-30
2023/09/24 10:24:29;;;;;;;2.97;1.93;;;;;;;23.65;60.03;98457.19;5040846;28;20205;-22
2023/09/24 10:27:03;;;;;;;2.93;2.40;;;;;;;23.65;60.06;98464.88;5052814;28;20211;-23
2023/09/24 10:29:45;;;;;;;3.17;2.20;;;;;;;23.65;60.19;98464.03;5044318;28;20251;-24
2023/09/24 10:32:20;;;;;;;3.23;2.23;;;;;;;23.65;60.46;98458.88;5043091;28;20588;-23
2023/09/24 10:34:57;;;;;;;1.90;1.70;;;;;;;23.64;60.53;98460.56;5050088;28;20201;-23
2023/09/24 10:37:29;;;;;;;2.53;1.93;;;;;;;23.65;60.28;98458.88;5057480;28;20203;-23
2023/09/24 10:42:29;;;;;;;2.93;1.97;;;;;;;23.65;60.66;98458.88;5056458;28;20257;-23
2023/09/24 10:45:08;;;;;;;3.20;1.90;;;;;;;23.64;60.95;98460.56;5059042;28;20262;-24
2023/09/24 10:47:45;;;;;;;3.20;2.13;;;;;;;23.64;60.94;98463.13;5057978;28;20253;-22
2023/09/24 10:50:23;;;;;;;2.50;2.00;;;;;;;23.65;60.75;98456.31;5050230;28;20205;-28
2023/09/24 10:52:50;;;;;;;2.23;1.90;;;;;;;23.58;60.48;98449.19;5048356;28;20315;-22
2023/09/24 10:55:37;;;;;;;4.73;2.43;;;;;;;23.64;60.50;98458.00;5050156;28;20209;-23
2023/09/24 10:58:14;;;;;;;2.23;2.03;;;;;;;23.64;60.79;98458.00;5042204;28;20211;-22
2023/09/24 11:00:44;;;;;;;2.83;2.27;;;;;;;23.64;61.06;98455.44;5043204;28;20209;-23
2023/09/24 11:03:13;;;;;;;2.17;1.77;;;;;;;23.64;61.12;98454.56;5049487;28;20224;-23
2023/09/24 11:05:40;;;;;;;3.80;2.10;;;;;;;23.65;60.89;98456.31;5046265;28;20212;-23
2023/09/24 11:08:07;;;;;;;2.20;2.00;;;;;;;23.65;61.20;98451.19;5041434;28;20264;-24
2023/09/24 11:10:33;;;;;;;2.37;2.00;;;;;;;23.65;61.20;98449.47;5050920;28;20211;-23
2023/09/24 11:13:02;;;;;;;2.20;2.00;;;;;;;23.65;61.03;98451.19;5053693;28;20267;-22
2023/09/24 11:15:32;;;;;;;2.10;1.90;;;;;;;23.64;61.35;98449.41;5048006;28;20234;-23
2023/09/24 11:17:59;;;;;;;3.00;1.90;;;;;;;23.64;60.97;98451.97;5031873;28;20259;-23
2023/09/24 11:20:28;;;;;;;2.70;1.90;;;;;;;23.64;60.80;98450.31;5048861;28;20589;-23
2023/09/24 11:23:01;;;;;;;2.37;2.17;;;;;;;23.63;61.14;98440.88;5051835;28;20278;-23
2023/09/24 11:25:29;;;;;;;2.53;2.10;;;;;;;23.64;61.30;98446.84;5047061;28;20215;-23
2023/09/24 11:27:57;;;;;;;3.60;2.33;;;;;;;23.64;61.25;98441.72;5047249;28;20564;-23
2023/09/24 11:30:27;;;;;;;2.33;2.13;;;;;;;23.64;61.28;98441.72;5052760;28;20753;-23
2023/09/24 11:32:54;;;;;;;2.93;2.23;;;;;;;23.64;61.13;98442.59;5049325;28;20742;-23
2023/09/24 11:35:21;;;;;;;3.63;2.20;;;;;;;23.62;61.33;98441.66;5061442;28;20204;-27
2023/09/24 11:37:50;;;;;;;5.60;2.20;;;;;;;23.64;61.08;98441.72;5048217;28;20205;-23
2023/09/24 11:40:29;;;;;;;3.50;2.50;;;;;;;23.65;61.28;98436.63;5047903;28;20204;-23
2023/09/24 11:43:00;;;;;;;3.73;2.37;;;;;;;23.65;61.09;98436.63;5041927;28;20634;-28
2023/09/24 11:45:43;;;;;;;3.57;2.47;;;;;;;23.67;61.42;98429.00;5039510;28;20197;-24